Time;durP1;ratioP1;P1;durP2;ratioP2;P2;SDS_P1;SDS_P2;PMS_P1;PMS_P2;Temp;Humidity;BMP_temperature;BMP_pressure;BME280_temperature;BME280_humidity;BME280_pressure;Samples;Min_cycle;Max_cycle;Signal;HPM_P1;HPM_P2
2022/05/24 00:00:23;;;;;;;3.83;3.45;;;;;;;13.36;87.57;96594.28;5065525;28;20048;-59
2022/05/24 00:02:50;;;;;;;8.07;4.00;;;;;;;13.73;87.62;96635.56;5065261;28;20055;-58
2022/05/24 00:05:17;;;;;;;5.68;4.03;;;;;;;13.74;88.29;96631.59;5070743;28;20049;-59
2022/05/24 00:07:45;;;;;;;7.55;4.05;;;;;;;13.77;89.44;96647.50;5064002;28;20052;-59
2022/05/24 00:10:15;;;;;;;4.95;3.70;;;;;;;13.46;90.09;96585.94;5063543;28;20063;-60
2022/05/24 00:12:42;;;;;;;3.83;3.50;;;;;;;13.87;87.70;96636.34;5063639;28;20052;-60
2022/05/24 00:15:24;;;;;;;4.15;3.67;;;;;;;13.77;86.76;96642.72;5045108;28;20053;-59
2022/05/24 00:18:11;;;;;;;4.93;3.35;;;;;;;13.78;86.46;96635.97;5045830;28;20048;-58
2022/05/24 00:20:37;;;;;;;6.05;3.00;;;;;;;13.80;85.80;96628.00;5063813;28;20111;-60
2022/05/24 00:23:05;;;;;;;4.32;3.03;;;;;;;13.75;85.93;96627.63;5045629;28;20060;-59
2022/05/24 00:25:34;;;;;;;4.40;3.35;;;;;;;13.64;86.22;96644.34;5045532;28;20052;-59
2022/05/24 00:28:03;;;;;;;4.82;3.58;;;;;;;13.37;86.25;96612.56;5063556;28;20059;-59
2022/05/24 00:30:30;;;;;;;4.13;3.72;;;;;;;13.11;86.75;96560.94;5066638;28;20196;-58
2022/05/24 00:32:57;;;;;;;3.60;3.28;;;;;;;13.66;85.82;96631.59;5067163;28;20059;-59
2022/05/24 00:35:25;;;;;;;10.25;3.85;;;;;;;13.65;86.09;96641.16;5067389;28;20052;-58
2022/05/24 00:37:52;;;;;;;4.53;3.30;;;;;;;13.56;86.01;96629.63;5049372;28;20572;-59
2022/05/24 00:40:39;;;;;;;5.18;3.42;;;;;;;13.60;86.15;96622.06;5065571;28;20049;-57
2022/05/24 00:43:32;;;;;;;5.43;3.42;;;;;;;13.61;86.16;96634.78;5066916;28;20511;-58
2022/05/24 00:46:09;;;;;;;5.78;3.97;;;;;;;13.52;87.12;96619.69;5048934;28;20056;-58
2022/05/24 00:48:45;;;;;;;7.03;3.80;;;;;;;13.42;87.71;96610.16;5067191;28;20056;-59
2022/05/24 00:51:18;;;;;;;4.63;3.85;;;;;;;13.18;88.55;96580.38;5067183;28;20048;-58
2022/05/24 00:53:51;;;;;;;4.97;3.80;;;;;;;13.51;87.55;96613.31;5066991;28;20063;-58
2022/05/24 00:56:35;;;;;;;;;;;;;;;13.44;87.69;96620.91;5048896;28;20543;-58
2022/05/24 00:59:06;;;;;;;8.30;5.10;;;;;;;13.37;89.46;96626.47;5066581;28;20386;-58
2022/05/24 01:01:42;;;;;;;6.45;4.80;;;;;;;13.41;89.66;96622.50;5048566;28;20482;-58
2022/05/24 01:04:12;;;;;;;5.65;3.65;;;;;;;13.36;87.93;96622.91;5070427;28;20048;-58
2022/05/24 01:06:39;;;;;;;5.75;4.38;;;;;;;13.35;87.87;96628.84;5086907;28;20059;-59
2022/05/24 01:09:14;;;;;;;4.55;3.65;;;;;;;13.06;87.17;96580.78;5086589;28;20059;-59
2022/05/24 01:11:45;;;;;;;8.27;3.60;;;;;;;13.33;86.62;96629.25;5086878;28;20060;-59
2022/05/24 01:14:15;;;;;;;5.97;3.55;;;;;;;13.29;87.22;96620.09;5086820;28;20278;-59
2022/05/24 01:16:42;;;;;;;7.43;3.30;;;;;;;13.23;87.98;96613.34;5086680;28;20482;-58
2022/05/24 01:19:17;;;;;;;5.60;3.95;;;;;;;13.20;88.02;96614.16;5068896;28;20047;-58
2022/05/24 01:21:45;;;;;;;6.18;3.20;;;;;;;13.31;87.53;96609.38;5086939;28;20060;-58
2022/05/24 01:24:20;;;;;;;3.90;3.15;;;;;;;13.06;89.06;96619.72;5068309;28;20071;-59
2022/05/24 01:26:53;;;;;;;5.47;2.97;;;;;;;12.95;89.24;96613.31;5086667;28;20060;-58
2022/05/24 01:29:21;;;;;;;;;;;;;;;12.84;90.53;96612.53;5087025;28;20429;-59
2022/05/24 01:37:22;;;;;;;5.20;3.95;;;;;;;12.54;92.10;96603.72;5086600;28;20071;-58
2022/05/24 01:39:53;;;;;;;3.80;3.30;;;;;;;12.06;90.96;96527.47;5086225;28;20051;-58
2022/05/24 01:42:22;;;;;;;3.88;3.00;;;;;;;12.68;90.33;96617.66;5085543;28;20678;-58
2022/05/24 01:44:54;;;;;;;4.85;3.60;;;;;;;11.89;89.93;96500.41;5084813;28;20048;-58
2022/05/24 01:47:23;;;;;;;5.95;3.20;;;;;;;12.16;89.78;96546.09;5068299;28;20052;-58
2022/05/24 01:49:55;;;;;;;6.55;3.63;;;;;;;12.41;91.10;96605.28;5086060;28;20062;-60
2022/05/24 01:52:52;;;;;;;3.50;3.20;;;;;;;12.54;90.61;96603.72;5068085;28;20525;-59
2022/05/24 01:55:44;;;;;;;5.38;3.15;;;;;;;12.51;90.51;96604.53;5067882;28;20052;-60
2022/05/24 01:58:13;;;;;;;7.05;3.40;;;;;;;12.29;90.68;96591.78;5067463;28;20047;-58
2022/05/24 02:00:46;;;;;;;4.00;3.28;;;;;;;11.98;89.90;96542.50;5085950;28;20431;-59
2022/05/24 02:03:13;;;;;;;3.47;3.17;;;;;;;12.12;90.10;96559.19;5067808;28;20067;-60
2022/05/24 02:05:42;;;;;;;4.15;3.10;;;;;;;12.41;89.94;96621.94;5070220;28;20498;-59
2022/05/24 02:08:11;;;;;;;3.30;3.03;;;;;;;12.38;90.21;96617.19;5065598;28;20617;-59
2022/05/24 02:10:43;;;;;;;3.50;3.20;;;;;;;12.33;90.74;96623.13;5065667;28;20056;-59
2022/05/24 02:13:13;;;;;;;6.47;3.13;;;;;;;12.29;91.39;96629.84;5065216;28;20053;-61
2022/05/24 02:15:46;;;;;;;5.22;3.35;;;;;;;11.99;91.60;96602.38;5047480;28;20055;-59
2022/05/24 02:18:20;;;;;;;5.70;4.32;;;;;;;11.58;95.88;96556.56;5047487;28;20064;-59
2022/05/24 02:20:46;;;;;;;4.80;4.30;;;;;;;12.20;95.25;96630.22;5065137;28;20049;-58
2022/05/24 02:23:16;;;;;;;8.38;5.22;;;;;;;12.20;96.39;96628.22;5065624;28;20430;-59
2022/05/24 02:25:49;;;;;;;10.35;6.55;;;;;;;12.13;96.78;96616.31;5065292;28;20052;-59
2022/05/24 02:28:17;;;;;;;7.18;4.70;;;;;;;12.06;96.10;96605.19;5047267;28;20064;-59
2022/05/24 02:31:06;;;;;;;8.52;3.60;;;;;;;12.17;94.21;96637.34;5065303;28;20071;-58
2022/05/24 02:33:32;;;;;;;6.22;3.40;;;;;;;12.28;93.21;96640.19;5047247;28;20061;-59
2022/05/24 02:36:00;;;;;;;10.98;3.60;;;;;;;12.31;92.55;96633.84;5065039;28;20590;-58
2022/05/24 02:38:27;;;;;;;9.35;4.28;;;;;;;12.27;91.73;96630.25;5065312;28;20106;-61
2022/05/24 02:43:39;;;;;;;5.50;3.70;;;;;;;12.29;91.98;96641.75;5065026;28;20059;-58
2022/05/24 02:46:07;;;;;;;7.13;3.97;;;;;;;12.26;92.20;96642.53;5064974;28;20140;-57
2022/05/24 02:48:35;;;;;;;6.15;3.47;;;;;;;11.49;91.09;96537.47;5046604;28;20056;-58
2022/05/24 02:51:06;;;;;;;6.25;4.00;;;;;;;12.01;92.58;96647.19;5064906;28;20052;-58
2022/05/24 02:53:33;;;;;;;12.55;3.70;;;;;;;12.03;92.77;96645.59;5064933;28;20060;-57
2022/05/24 02:56:03;;;;;;;6.22;3.13;;;;;;;11.83;93.01;96626.88;5064468;28;20056;-59
2022/05/24 02:58:30;;;;;;;4.65;3.42;;;;;;;12.10;92.45;96656.75;5046338;28;20056;-58
2022/05/24 03:00:58;;;;;;;3.55;3.25;;;;;;;11.72;92.92;96589.94;5064335;28;20044;-59
2022/05/24 03:03:24;;;;;;;4.00;3.45;;;;;;;12.06;92.54;96646.81;5046215;28;20057;-58
2022/05/24 03:05:51;;;;;;;4.45;2.70;;;;;;;12.13;91.37;96644.06;5080914;28;20044;-58
2022/05/24 03:11:05;;;;;;;4.30;3.22;;;;;;;12.06;92.03;96646.81;5084341;28;20626;-58
2022/05/24 03:16:17;;;;;;;5.25;3.42;;;;;;;12.26;91.23;96648.09;5084572;28;20127;-57
2022/05/24 03:18:44;;;;;;;4.47;3.00;;;;;;;12.18;91.19;96649.25;5084444;28;20048;-57
2022/05/24 03:21:10;;;;;;;4.70;3.50;;;;;;;12.18;91.71;96652.84;5084824;28;20055;-60
2022/05/24 03:23:38;;;;;;;7.00;3.20;;;;;;;12.27;91.22;96655.22;5084410;28;20059;-57
2022/05/24 03:26:04;;;;;;;3.55;3.10;;;;;;;12.38;90.98;96663.63;5066096;28;20356;-58
2022/05/24 03:28:32;;;;;;;4.65;3.28;;;;;;;12.14;89.96;96601.22;5065760;28;20054;-57
2022/05/24 03:31:03;;;;;;;4.80;3.38;;;;;;;12.43;89.57;96624.34;5083703;28;20516;-58
2022/05/24 03:33:30;;;;;;;3.67;3.38;;;;;;;12.21;87.54;96562.38;5084219;28;20059;-58
2022/05/24 03:35:57;;;;;;;4.78;3.50;;;;;;;12.66;86.74;96622.81;5083992;28;20055;-57
2022/05/24 03:38:23;;;;;;;5.65;3.35;;;;;;;12.96;86.09;96664.94;5083848;28;20549;-57
2022/05/24 03:40:50;;;;;;;3.97;3.58;;;;;;;12.99;85.35;96664.16;5083542;28;20051;-57
2022/05/24 03:43:17;;;;;;;7.05;3.90;;;;;;;13.13;84.38;96663.44;5084186;28;20449;-59
2022/05/24 03:45:43;;;;;;;4.13;3.25;;;;;;;13.13;84.38;96669.78;5083945;28;20091;-58
2022/05/24 03:48:13;;;;;;;4.05;3.08;;;;;;;13.33;84.20;96676.56;5084073;28;20193;-58
2022/05/24 03:50:40;;;;;;;3.38;3.10;;;;;;;12.64;83.54;96580.75;5065641;28;20056;-59
2022/05/24 03:53:07;;;;;;;4.43;3.45;;;;;;;13.36;84.69;96678.53;5083770;28;20056;-58
2022/05/24 03:55:33;;;;;;;5.05;3.78;;;;;;;13.54;84.09;96679.34;5065367;28;20514;-59
2022/05/24 03:58:00;;;;;;;5.57;3.10;;;;;;;13.83;82.89;96679.31;5083583;28;20071;-57
2022/05/24 04:00:33;;;;;;;4.05;3.42;;;;;;;14.00;81.43;96678.47;5083740;28;20101;-58
2022/05/24 04:03:01;;;;;;;3.75;3.15;;;;;;;14.22;80.65;96680.00;5083665;28;20047;-59
2022/05/24 04:05:29;;;;;;;4.25;3.60;;;;;;;14.45;79.46;96678.34;5069762;28;20052;-59
2022/05/24 04:07:58;;;;;;;3.40;3.08;;;;;;;14.60;78.92;96673.53;5063642;28;20076;-57
2022/05/24 04:10:24;;;;;;;3.95;3.25;;;;;;;14.78;78.05;96669.44;5062924;28;20647;-60
2022/05/24 04:12:51;;;;;;;5.53;3.50;;;;;;;14.26;77.69;96578.53;5045375;28;20053;-58
2022/05/24 04:15:19;;;;;;;5.10;3.65;;;;;;;15.05;77.49;96669.66;5064008;28;20067;-59
2022/05/24 04:17:46;;;;;;;8.10;3.70;;;;;;;15.24;75.62;96680.31;5045481;28;20048;-61
2022/05/24 04:20:15;;;;;;;6.32;3.60;;;;;;;15.07;75.39;96619.84;5063109;28;20059;-59
2022/05/24 04:22:42;;;;;;;7.35;4.00;;;;;;;15.46;74.41;96681.75;5063510;28;20060;-59
2022/05/24 04:25:09;;;;;;;4.50;3.50;;;;;;;15.38;76.24;96680.22;5062526;28;20113;-59
2022/05/24 04:27:36;;;;;;;6.53;4.65;;;;;;;15.14;76.36;96656.09;5063341;28;20051;-60
2022/05/24 04:30:05;;;;;;;7.53;4.53;;;;;;;14.33;77.33;96547.06;5063258;28;20431;-59
2022/05/24 04:32:31;;;;;;;7.97;4.53;;;;;;;15.14;78.33;96686.78;5045308;28;20430;-58
2022/05/24 04:34:58;;;;;;;8.32;4.47;;;;;;;15.40;77.23;96689.00;5045206;28;20428;-60
2022/05/24 04:37:25;;;;;;;6.40;4.25;;;;;;;15.56;76.46;96686.47;5063200;28;20052;-59
2022/05/24 04:39:51;;;;;;;7.63;4.57;;;;;;;15.73;75.31;96688.31;5045276;28;20049;-59
2022/05/24 04:42:24;;;;;;;7.88;4.20;;;;;;;15.70;75.48;96697.53;5045166;28;20055;-58
2022/05/24 04:44:59;;;;;;;6.10;4.40;;;;;;;15.73;75.58;96707.88;5063326;28;20135;-59
2022/05/24 04:47:28;;;;;;;6.28;4.32;;;;;;;15.45;76.01;96646.69;5063192;28;20152;-61
2022/05/24 04:49:59;;;;;;;7.18;4.15;;;;;;;15.63;76.02;96675.25;5062744;28;20048;-58
2022/05/24 04:52:29;;;;;;;4.82;4.38;;;;;;;15.84;76.23;96691.81;5062488;28;20049;-59
2022/05/24 04:54:56;;;;;;;4.72;4.30;;;;;;;15.96;75.27;96693.31;5063215;28;20059;-59
2022/05/24 04:57:23;;;;;;;5.60;3.78;;;;;;;16.05;74.71;96686.03;5044761;28;20057;-58
2022/05/24 04:59:50;;;;;;;7.03;4.35;;;;;;;16.28;73.74;96688.97;5062990;28;20063;-58
2022/05/24 05:02:19;;;;;;;7.93;4.55;;;;;;;16.19;74.12;96657.94;5062065;28;20434;-58
2022/05/24 05:04:46;;;;;;;6.68;4.28;;;;;;;16.57;74.42;96695.88;5062189;28;20051;-58
2022/05/24 05:07:16;;;;;;;5.63;4.18;;;;;;;16.17;73.53;96614.84;5062606;28;20095;-58
2022/05/24 05:09:43;;;;;;;4.20;3.85;;;;;;;16.62;72.98;96669.44;5062836;28;20294;-58
2022/05/24 05:12:11;;;;;;;7.45;6.03;;;;;;;16.90;72.34;96699.06;5044779;28;20105;-59
2022/05/24 05:14:39;;;;;;;6.63;4.53;;;;;;;16.78;72.41;96660.44;5063431;28;20049;-58
2022/05/24 05:17:06;;;;;;;5.28;4.78;;;;;;;17.14;71.67;96692.31;5065083;28;20447;-59
2022/05/24 05:19:32;;;;;;;8.30;5.00;;;;;;;17.29;70.02;96697.28;5066227;28;20063;-58
2022/05/24 05:22:02;;;;;;;6.63;4.43;;;;;;;17.27;69.49;96654.13;5066049;28;20049;-58
2022/05/24 05:24:30;;;;;;;55.33;26.52;;;;;;;17.68;67.95;96668.69;5065979;28;20139;-58
2022/05/24 05:26:57;;;;;;;31.70;16.10;;;;;;;17.89;67.27;96685.16;5047967;28;20055;-59
2022/05/24 05:32:20;;;;;;;15.07;8.85;;;;;;;17.89;66.98;96679.56;5066745;28;20056;-58
2022/05/24 05:34:47;;;;;;;11.95;7.05;;;;;;;18.08;66.64;96670.41;5065705;28;20098;-59
2022/05/24 05:37:15;;;;;;;10.20;5.95;;;;;;;18.18;66.23;96691.81;5065797;28;20060;-60
2022/05/24 05:39:42;;;;;;;6.35;4.88;;;;;;;17.94;67.03;96670.66;5047960;28;20071;-59
2022/05/24 05:42:09;;;;;;;10.05;5.35;;;;;;;18.17;67.63;96689.44;5066135;28;20056;-57
2022/05/24 05:44:37;;;;;;;9.30;4.72;;;;;;;18.03;68.29;96674.50;5065632;28;20059;-58
2022/05/24 05:47:04;;;;;;;10.23;5.28;;;;;;;17.97;67.61;96681.00;5066331;28;20049;-60
2022/05/24 05:49:31;;;;;;;9.85;5.25;;;;;;;17.95;67.97;96644.22;5065804;28;20045;-58
2022/05/24 05:51:57;;;;;;;7.63;5.10;;;;;;;18.32;67.13;96688.75;5065712;28;20063;-57
2022/05/24 05:54:24;;;;;;;6.57;5.10;;;;;;;18.51;66.95;96682.41;5065379;28;20070;-61
2022/05/24 05:56:51;;;;;;;7.95;4.90;;;;;;;18.42;66.88;96665.34;5065158;28;20056;-56
2022/05/24 05:59:18;;;;;;;9.70;5.22;;;;;;;18.75;66.97;96686.72;5047958;28;20053;-58
2022/05/24 06:01:45;;;;;;;7.45;5.20;;;;;;;18.76;66.72;96693.91;5065919;28;20053;-57
2022/05/24 06:04:12;;;;;;;5.82;5.22;;;;;;;18.66;66.36;96678.09;5063053;28;20048;-58
2022/05/24 06:06:45;;;;;;;6.88;4.82;;;;;;;18.79;66.48;96698.69;5063634;28;20106;-58
2022/05/24 06:11:26;;;;;;;7.47;5.18;;;;;;;17.73;67.02;96556.16;5060290;28;20808;-64
2022/05/24 06:13:52;;;;;;;5.20;4.80;;;;;;;18.44;67.60;96707.81;5038644;28;20049;-61
2022/05/24 06:16:19;;;;;;;11.13;4.97;;;;;;;18.91;66.54;96705.63;5045216;28;20049;-60
2022/05/24 06:18:46;;;;;;;5.32;4.85;;;;;;;18.87;64.27;96663.63;5038646;28;20057;-60
2022/05/24 06:21:13;;;;;;;5.45;5.05;;;;;;;18.86;64.43;96628.34;5040481;28;20056;-60
2022/05/24 06:23:40;;;;;;;7.60;6.53;;;;;;;19.20;64.64;96653.28;5040338;28;20056;-62
2022/05/24 06:26:08;;;;;;;5.20;4.70;;;;;;;19.03;64.72;96660.84;5040801;28;20891;-64
2022/05/24 06:28:35;;;;;;;11.65;5.13;;;;;;;18.57;66.95;96691.91;5040542;28;20060;-63
2022/05/24 06:31:02;;;;;;;9.27;5.20;;;;;;;19.14;65.72;96692.28;5039764;28;20067;-61
2022/05/24 06:33:29;;;;;;;14.27;5.30;;;;;;;19.36;64.48;96699.03;5038575;28;20787;-64
2022/05/24 06:35:56;;;;;;;9.02;5.60;;;;;;;18.64;66.24;96697.38;5039961;28;20158;-65
2022/05/24 06:38:23;;;;;;;9.45;5.88;;;;;;;18.99;65.81;96696.66;5039713;28;20057;-64
2022/05/24 06:40:49;;;;;;;6.05;5.53;;;;;;;19.42;63.68;96721.81;5039765;28;20048;-63
2022/05/24 06:43:16;;;;;;;5.55;5.05;;;;;;;20.03;60.12;96702.28;5039823;28;20060;-60
2022/05/24 06:45:43;;;;;;;4.85;4.43;;;;;;;19.28;60.18;96641.44;5039801;28;20432;-59
2022/05/24 06:48:11;;;;;;;8.23;5.45;;;;;;;20.25;58.84;96708.97;5039720;28;20107;-63
2022/05/24 06:50:40;;;;;;;5.50;4.60;;;;;;;20.95;56.66;96701.34;5040003;28;20053;-63
2022/05/24 06:53:07;;;;;;;7.60;5.28;;;;;;;21.37;55.27;96674.72;5039728;28;21429;-62
2022/05/24 06:55:34;;;;;;;8.40;5.60;;;;;;;21.65;55.57;96699.22;5039880;28;20049;-62
2022/05/24 06:58:00;;;;;;;5.55;5.05;;;;;;;21.64;55.01;96638.44;5039641;28;20060;-63
2022/05/24 07:03:15;;;;;;;9.10;6.07;;;;;;;22.03;54.03;96685.91;5039717;28;20150;-63
2022/05/24 07:05:43;;;;;;;8.20;5.90;;;;;;;20.55;56.24;96694.47;5038266;28;20057;-59
2022/05/24 07:08:10;;;;;;;6.50;5.68;;;;;;;20.67;55.70;96700.16;5039477;28;20053;-63
2022/05/24 07:10:39;;;;;;;6.00;5.20;;;;;;;19.78;55.07;96578.41;5039280;28;20119;-63
2022/05/24 07:13:06;;;;;;;10.25;6.28;;;;;;;20.95;54.90;96692.91;5039381;28;20076;-63
2022/05/24 07:15:33;;;;;;;11.85;7.95;;;;;;;21.67;54.23;96691.09;5039050;28;20053;-59
2022/05/24 07:18:01;;;;;;;8.80;6.97;;;;;;;21.84;52.32;96694.63;5039424;28;20553;-62
2022/05/24 07:20:29;;;;;;;10.60;6.63;;;;;;;22.10;51.83;96691.31;5039561;28;20060;-61
2022/05/24 07:23:09;;;;;;;14.98;8.38;;;;;;;21.15;54.08;96637.19;5025696;28;20060;-59
2022/05/24 07:25:36;;;;;;;12.40;7.35;;;;;;;19.11;57.48;96491.00;5024585;28;20064;-62
2022/05/24 07:28:04;;;;;;;12.10;7.07;;;;;;;19.93;57.58;96666.78;5025540;28;20049;-62
2022/05/24 07:30:32;;;;;;;8.30;7.45;;;;;;;20.29;56.72;96699.19;5025628;28;20060;-59
2022/05/24 07:32:59;;;;;;;10.85;6.90;;;;;;;20.74;55.90;96668.16;5026337;28;20061;-61
2022/05/24 07:35:27;;;;;;;16.55;8.85;;;;;;;20.32;55.61;96641.25;5026320;28;20064;-62
2022/05/24 07:37:54;;;;;;;22.17;11.35;;;;;;;20.51;52.95;96643.91;5026347;28;20065;-63
2022/05/24 07:46:00;;;;;;;6.75;4.78;;;;;;;21.05;50.68;96655.22;5025947;28;20045;-63
2022/05/24 07:48:27;;;;;;;5.03;4.43;;;;;;;21.50;48.35;96590.97;5024620;28;20064;-63
2022/05/24 07:50:53;;;;;;;4.82;4.38;;;;;;;22.02;47.19;96627.91;5025980;28;20054;-65
2022/05/24 07:53:20;;;;;;;5.00;4.50;;;;;;;22.12;46.29;96570.31;5025911;28;20471;-61
2022/05/24 07:55:47;;;;;;;5.35;4.85;;;;;;;22.90;45.24;96647.34;5025922;28;20084;-62
2022/05/24 07:58:14;;;;;;;7.93;4.47;;;;;;;22.60;46.05;96655.72;5025325;28;20049;-61
2022/05/24 08:00:41;;;;;;;5.22;4.28;;;;;;;22.96;44.74;96655.97;5025207;28;20057;-61
2022/05/24 08:03:08;;;;;;;4.85;4.35;;;;;;;23.16;44.32;96659.25;5025233;28;20045;-65
2022/05/24 08:05:36;;;;;;;4.35;4.00;;;;;;;23.37;43.80;96658.44;5023524;28;20064;-61
2022/05/24 08:08:05;;;;;;;5.25;4.60;;;;;;;23.75;43.25;96656.91;5023425;28;20053;-62
2022/05/24 08:10:33;;;;;;;5.85;5.35;;;;;;;24.02;43.63;96658.25;5025086;28;20057;-63
2022/05/24 08:13:05;;;;;;;6.47;5.07;;;;;;;24.60;42.87;96654.06;5025495;28;20500;-61
2022/05/24 08:15:32;;;;;;;4.65;4.35;;;;;;;24.47;42.42;96650.59;5025488;28;20057;-63
2022/05/24 08:17:59;;;;;;;5.57;4.85;;;;;;;24.48;42.17;96660.69;5025081;28;20055;-62
2022/05/24 08:20:27;;;;;;;5.32;4.82;;;;;;;24.26;42.96;96645.88;5023545;28;20071;-60
2022/05/24 08:22:54;;;;;;;5.95;5.25;;;;;;;24.31;43.44;96653.72;5024990;28;20057;-62
2022/05/24 08:25:20;;;;;;;4.47;4.18;;;;;;;24.48;43.89;96646.53;5024988;28;20057;-60
2022/05/24 08:27:47;;;;;;;5.60;5.10;;;;;;;23.54;44.04;96515.56;5024672;28;20397;-62
2022/05/24 08:30:16;;;;;;;12.20;4.93;;;;;;;24.12;44.46;96652.16;5024437;28;20057;-62
2022/05/24 08:32:44;;;;;;;5.47;5.07;;;;;;;24.39;44.05;96654.22;5022601;28;20056;-62
2022/05/24 08:35:13;;;;;;;5.45;5.00;;;;;;;24.77;43.77;96638.34;5024311;28;20623;-65
2022/05/24 08:37:42;;;;;;;5.90;4.60;;;;;;;24.19;43.35;96600.88;5024380;28;20053;-60
2022/05/24 08:40:12;;;;;;;5.20;4.70;;;;;;;24.50;43.59;96552.59;5024376;28;20416;-61
2022/05/24 08:42:50;;;;;;;5.25;4.78;;;;;;;24.01;43.85;96629.19;5024513;28;20055;-61
2022/05/24 08:48:26;;;;;;;5.35;4.85;;;;;;;23.59;46.47;96628.06;5024674;28;20053;-64
2022/05/24 08:51:00;;;;;;;5.45;4.93;;;;;;;24.26;45.08;96631.72;5022749;28;20103;-60
2022/05/24 08:53:27;;;;;;;4.68;4.28;;;;;;;24.97;43.41;96633.00;5022587;28;20049;-59
2022/05/24 08:55:53;;;;;;;7.65;5.03;;;;;;;25.25;42.80;96630.84;5024161;28;20504;-64
2022/05/24 08:58:31;;;;;;;5.15;4.75;;;;;;;25.45;43.13;96628.28;5022477;28;20049;-60
2022/05/24 09:00:58;;;;;;;5.50;5.00;;;;;;;25.45;43.02;96621.84;5043357;28;20064;-62
2022/05/24 09:03:26;;;;;;;9.15;6.50;;;;;;;24.80;43.90;96577.13;5044510;28;20064;-60
2022/05/24 09:06:10;;;;;;;5.25;4.90;;;;;;;25.27;43.76;96634.00;5033665;28;20061;-60
2022/05/24 09:08:54;;;;;;;8.80;5.97;;;;;;;24.99;44.50;96619.09;5024958;28;20053;-61
2022/05/24 09:11:24;;;;;;;5.32;4.93;;;;;;;25.32;43.31;96625.63;5023927;28;20057;-60
2022/05/24 09:14:19;;;;;;;7.15;5.38;;;;;;;25.38;44.07;96605.97;5022830;28;20064;-60
2022/05/24 09:16:45;;;;;;;5.15;4.63;;;;;;;25.08;44.58;96621.94;5024099;28;20053;-60
2022/05/24 09:19:25;;;;;;;4.93;4.53;;;;;;;24.98;44.45;96614.72;5024409;28;20084;-62
2022/05/24 09:21:53;;;;;;;5.68;4.78;;;;;;;25.13;44.30;96584.41;5022583;28;20045;-61
2022/05/24 09:24:32;;;;;;;7.82;5.72;;;;;;;25.67;43.91;96628.06;5022442;28;20469;-61
2022/05/24 09:27:08;;;;;;;5.15;4.75;;;;;;;24.64;44.54;96549.91;5022328;28;20058;-60
2022/05/24 09:30:06;;;;;;;8.05;6.22;;;;;;;24.61;46.34;96626.53;5022696;28;20122;-61
2022/05/24 09:32:37;;;;;;;5.47;4.65;;;;;;;24.86;46.05;96627.03;5022456;28;20053;-60
2022/05/24 09:35:18;;;;;;;6.03;5.55;;;;;;;24.37;47.17;96617.91;5022147;28;20060;-61
2022/05/24 09:38:08;;;;;;;5.10;4.70;;;;;;;25.22;45.23;96609.13;5022550;28;20484;-62
2022/05/24 09:40:44;;;;;;;6.35;4.88;;;;;;;25.71;43.89;96617.31;5024088;28;20164;-60
2022/05/24 09:43:19;;;;;;;4.53;4.10;;;;;;;25.51;44.02;96552.66;5022230;28;20057;-61
2022/05/24 09:45:53;;;;;;;5.88;4.55;;;;;;;25.96;43.60;96611.19;5022428;28;20053;-61
2022/05/24 09:48:24;;;;;;;;;;;;;;;25.81;43.83;96608.28;5022816;28;20065;-60
2022/05/24 09:50:54;;;;;;;7.32;4.75;;;;;;;25.99;43.59;96607.38;5023833;28;19932;-61
2022/05/24 09:53:24;;;;;;;4.72;4.43;;;;;;;26.37;42.75;96604.59;5022172;28;20053;-62
2022/05/24 09:55:59;;;;;;;6.95;5.15;;;;;;;26.55;42.45;96610.16;5023934;28;20081;-64
2022/05/24 09:58:28;;;;;;;5.57;4.90;;;;;;;26.95;41.93;96592.59;5022117;28;20132;-61
2022/05/24 10:01:04;;;;;;;7.03;5.40;;;;;;;25.76;43.83;96545.72;5023554;28;20049;-60
2022/05/24 10:03:37;;;;;;;6.13;5.53;;;;;;;27.04;42.53;96586.81;5022070;28;20536;-61
2022/05/24 10:06:33;;;;;;;6.57;5.60;;;;;;;26.95;42.11;96593.41;5023514;28;20053;-61
2022/05/24 10:09:18;;;;;;;5.95;4.97;;;;;;;26.11;43.47;96522.00;5013196;28;20578;-62
2022/05/24 10:11:54;;;;;;;5.97;5.57;;;;;;;26.98;42.13;96592.41;5023019;28;20050;-60
2022/05/24 10:14:52;;;;;;;6.22;5.68;;;;;;;27.78;40.76;96592.75;5023446;28;20064;-61
2022/05/24 10:17:18;;;;;;;8.85;6.50;;;;;;;27.84;40.14;96585.06;5023403;28;20614;-60
2022/05/24 10:20:01;;;;;;;5.85;5.35;;;;;;;27.51;40.26;96587.41;5023165;28;20057;-62
2022/05/24 10:22:43;;;;;;;11.73;7.63;;;;;;;27.59;40.95;96582.88;5022057;28;20053;-61
2022/05/24 10:25:15;;;;;;;6.43;6.03;;;;;;;26.00;43.51;96586.28;5023473;28;20178;-60
2022/05/24 10:27:55;;;;;;;6.00;5.60;;;;;;;26.15;43.07;96524.63;5021693;28;20555;-61
2022/05/24 10:30:24;;;;;;;6.25;4.80;;;;;;;26.12;43.25;96582.41;5023128;28;20045;-59
2022/05/24 10:39:45;;;;;;;6.40;5.78;;;;;;;26.05;43.65;96579.94;5023092;28;20061;-60
2022/05/24 10:42:43;;;;;;;5.53;5.13;;;;;;;26.95;42.07;96584.88;5023105;28;20080;-60
2022/05/24 10:45:16;;;;;;;6.38;5.78;;;;;;;26.47;43.16;96584.19;5022890;28;20061;-62
2022/05/24 10:48:07;;;;;;;5.82;4.90;;;;;;;26.75;41.67;96541.34;5022084;28;20554;-60
2022/05/24 10:50:41;;;;;;;6.22;5.15;;;;;;;24.96;45.13;96574.72;5023427;28;20069;-61
2022/05/24 10:53:20;;;;;;;5.63;5.10;;;;;;;24.75;44.93;96544.56;5022001;28;20508;-61
2022/05/24 10:56:13;;;;;;;5.32;4.82;;;;;;;25.21;45.27;96533.84;5023397;28;20057;-61
2022/05/24 10:58:41;;;;;;;5.10;4.70;;;;;;;25.15;44.88;96573.41;5022947;28;20698;-60
2022/05/24 11:01:24;;;;;;;9.18;6.30;;;;;;;25.43;45.06;96573.31;5026988;28;20053;-59
2022/05/24 11:03:58;;;;;;;5.60;5.20;;;;;;;24.49;46.08;96531.97;5025170;28;20053;-61
2022/05/24 11:06:39;;;;;;;6.13;5.57;;;;;;;25.22;45.73;96558.91;5026707;28;20076;-64
2022/05/24 11:09:21;;;;;;;5.80;5.30;;;;;;;25.85;44.48;96531.47;5026596;28;20057;-61
2022/05/24 11:11:59;;;;;;;6.32;5.93;;;;;;;26.63;43.21;96512.69;5027097;28;20068;-60
2022/05/24 11:14:36;;;;;;;6.57;6.00;;;;;;;26.52;43.55;96494.63;5026911;28;20064;-63
2022/05/24 11:17:04;;;;;;;6.13;5.47;;;;;;;25.18;44.64;96439.19;5026155;28;20053;-60
2022/05/24 11:19:39;;;;;;;7.55;6.57;;;;;;;26.59;43.73;96500.72;5025799;28;20061;-64
2022/05/24 11:22:24;;;;;;;8.30;6.85;;;;;;;26.78;42.69;96534.66;5026268;28;20745;-60
2022/05/24 11:25:02;;;;;;;5.93;5.35;;;;;;;26.02;43.97;96546.84;5026322;28;20875;-60
2022/05/24 11:28:00;;;;;;;6.03;5.43;;;;;;;23.28;47.93;96418.94;5026250;28;20056;-60
2022/05/24 11:30:28;;;;;;;6.25;5.55;;;;;;;23.81;49.03;96592.00;5025248;28;20064;-60
2022/05/24 11:33:09;;;;;;;6.38;5.78;;;;;;;23.11;51.20;96685.28;5024840;28;20386;-62
2022/05/24 11:35:44;;;;;;;6.82;5.72;;;;;;;23.40;51.21;96714.06;5026665;28;20451;-60
2022/05/24 11:38:17;;;;;;;6.32;5.00;;;;;;;22.86;55.21;96764.53;5026618;28;20144;-61
2022/05/24 11:41:01;;;;;;;20.40;7.82;;;;;;;20.17;79.58;96769.44;5026304;28;20049;-65
2022/05/24 11:43:35;;;;;;;18.60;6.90;;;;;;;19.35;93.54;96837.91;5025856;28;20512;-65
2022/05/24 11:46:07;;;;;;;14.98;7.07;;;;;;;18.34;100.00;96812.53;5026199;28;20064;-61
2022/05/24 11:48:40;;;;;;;15.65;6.80;;;;;;;17.16;100.00;96740.28;5025912;28;20735;-63
2022/05/24 11:51:30;;;;;;;5.35;4.90;;;;;;;17.13;100.00;96816.69;5025998;28;20383;-64
2022/05/24 11:53:57;;;;;;;7.75;6.60;;;;;;;16.69;100.00;96817.59;5025525;28;20543;-62
2022/05/24 11:56:27;;;;;;;8.70;6.05;;;;;;;16.44;100.00;96766.66;5026099;28;20050;-62
2022/05/24 11:59:04;;;;;;;14.30;4.72;;;;;;;16.04;100.00;96753.50;5024460;28;20049;-62
2022/05/24 12:01:43;;;;;;;5.53;4.70;;;;;;;15.87;100.00;96718.13;5025782;28;20144;-64
2022/05/24 12:09:59;;;;;;;8.15;5.60;;;;;;;16.87;100.00;96641.13;5025394;28;20058;-65
2022/05/24 12:12:44;;;;;;;10.73;5.43;;;;;;;17.10;100.00;96632.81;5025796;28;20084;-64
2022/05/24 12:15:16;;;;;;;7.93;5.07;;;;;;;17.34;100.00;96646.41;5025469;28;21040;-64
2022/05/24 12:17:46;;;;;;;8.00;5.00;;;;;;;17.58;100.00;96636.03;5025117;28;20053;-64
2022/05/24 12:20:34;;;;;;;7.75;5.35;;;;;;;18.03;100.00;96634.44;5025142;28;20057;-65
2022/05/24 12:23:04;;;;;;;7.72;5.82;;;;;;;18.47;100.00;96642.41;5023714;28;20068;-63
2022/05/24 12:26:04;;;;;;;10.85;6.10;;;;;;;18.38;100.00;96588.94;5025918;28;20060;-63
2022/05/24 12:28:34;;;;;;;6.05;5.38;;;;;;;19.07;100.00;96646.75;5023827;28;20057;-63
2022/05/24 12:31:25;;;;;;;5.78;5.20;;;;;;;19.35;100.00;96658.16;5024879;28;20061;-63
2022/05/24 12:34:03;;;;;;;7.88;6.15;;;;;;;19.49;96.66;96651.38;5021702;28;20138;-62